createdAt,value
2022-09-12T00:00:09.088Z,14.68
2022-09-12T00:01:08.912Z,14.59
2022-09-12T00:02:08.827Z,14.61
2022-09-12T00:03:08.766Z,14.63
2022-09-12T00:04:08.914Z,14.61
2022-09-12T00:05:08.671Z,14.58
2022-09-12T00:06:08.718Z,14.62
2022-09-12T00:07:08.589Z,14.58
2022-09-12T00:08:08.533Z,14.56
2022-09-12T00:09:08.612Z,14.58
2022-09-12T00:10:08.544Z,14.68
2022-09-12T00:11:08.406Z,14.55
2022-09-12T00:12:08.575Z,14.52
2022-09-12T00:13:08.320Z,14.59
2022-09-12T00:14:08.370Z,14.56
2022-09-12T00:15:08.234Z,14.53
2022-09-12T00:16:08.447Z,14.48
2022-09-12T00:17:08.148Z,14.53
2022-09-12T00:18:08.399Z,14.45
2022-09-12T00:19:08.202Z,14.48
2022-09-12T00:20:08.052Z,14.48
2022-09-12T00:21:08.008Z,14.51
2022-09-12T00:22:07.934Z,14.49
2022-09-12T00:23:08.023Z,14.52
2022-09-12T00:24:07.845Z,14.55
2022-09-12T00:25:07.887Z,14.49
2022-09-12T00:26:07.860Z,14.45
2022-09-12T00:27:07.826Z,14.48
2022-09-12T00:28:07.859Z,14.49
2022-09-12T00:29:07.692Z,14.56
2022-09-12T00:30:07.693Z,14.53
2022-09-12T00:31:07.723Z,14.61
2022-09-12T00:32:07.719Z,14.58
2022-09-12T00:33:07.459Z,14.51
2022-09-12T00:34:07.548Z,14.59
2022-09-12T00:35:07.403Z,14.56
2022-09-12T00:36:07.539Z,14.58
2022-09-12T00:37:07.356Z,14.44
2022-09-12T00:38:07.311Z,14.51
2022-09-12T00:39:07.267Z,14.44
2022-09-12T00:40:07.393Z,14.48
2022-09-12T00:41:07.176Z,14.37
2022-09-12T00:42:07.113Z,14.38
2022-09-12T00:43:07.148Z,14.38
2022-09-12T00:44:07.231Z,14.43
2022-09-12T00:45:07.060Z,14.37
2022-09-12T00:46:06.926Z,14.38
2022-09-12T00:47:07.082Z,14.37
2022-09-12T00:48:06.851Z,14.34
2022-09-12T00:49:06.885Z,14.23
2022-09-12T00:50:06.768Z,14.22
2022-09-12T00:51:06.962Z,14.22
2022-09-12T00:52:06.645Z,14.33
2022-09-12T00:53:06.705Z,14.22
2022-09-12T00:54:06.752Z,14.22
2022-09-12T00:55:06.513Z,14.22
2022-09-12T00:56:06.785Z,14.30
2022-09-12T00:57:06.429Z,14.26
2022-09-12T00:58:06.540Z,14.31
2022-09-12T00:59:06.346Z,14.26
2022-09-12T01:00:06.342Z,14.22
2022-09-12T01:01:06.450Z,14.23
2022-09-12T01:02:06.396Z,14.23
2022-09-12T01:03:06.374Z,14.23
2022-09-12T01:04:06.131Z,14.23
2022-09-12T01:05:06.171Z,14.22
2022-09-12T01:06:06.051Z,14.16
2022-09-12T01:07:06.239Z,14.13
2022-09-12T01:08:06.279Z,14.13
2022-09-12T01:09:06.005Z,14.12
2022-09-12T01:10:05.867Z,14.03
2022-09-12T01:11:05.830Z,14.03
2022-09-12T01:12:05.870Z,14.01
2022-09-12T01:13:05.738Z,14.04
2022-09-12T01:14:05.839Z,14.03
2022-09-12T01:15:05.652Z,13.83
2022-09-12T01:16:05.649Z,13.91
2022-09-12T01:17:05.568Z,13.91
2022-09-12T01:18:06.746Z,13.97
2022-09-12T01:19:05.490Z,13.89
2022-09-12T01:20:05.777Z,13.82
2022-09-12T01:21:05.395Z,13.80
2022-09-12T01:22:05.353Z,13.87
2022-09-12T01:23:05.388Z,13.95
2022-09-12T01:24:05.318Z,13.83
2022-09-12T01:25:05.406Z,13.83
2022-09-12T01:26:05.200Z,13.83
2022-09-12T01:27:05.199Z,13.89
2022-09-12T01:28:05.093Z,13.91
2022-09-12T01:29:05.251Z,13.78
2022-09-12T01:30:05.081Z,13.83
2022-09-12T01:31:05.242Z,13.83
2022-09-12T01:32:05.024Z,13.94
2022-09-12T01:33:04.872Z,13.85
2022-09-12T01:34:05.114Z,13.82
2022-09-12T01:35:04.790Z,13.95
2022-09-12T01:36:04.870Z,13.87
2022-09-12T01:37:04.852Z,13.98
2022-09-12T01:38:04.656Z,13.97
2022-09-12T01:39:04.618Z,13.87
2022-09-12T01:40:04.837Z,13.86
2022-09-12T01:41:04.628Z,13.91
2022-09-12T01:42:04.775Z,13.87
2022-09-12T01:43:04.562Z,13.91
2022-09-12T01:44:04.418Z,13.91
2022-09-12T01:45:04.587Z,13.87
2022-09-12T01:46:04.350Z,13.89
2022-09-12T01:47:04.521Z,13.97
2022-09-12T01:48:04.230Z,14.00
2022-09-12T01:49:04.200Z,13.95
2022-09-12T01:50:04.139Z,13.87
2022-09-12T01:51:04.262Z,13.82
2022-09-12T01:52:04.056Z,13.83
2022-09-12T01:53:04.173Z,13.86
2022-09-12T01:54:03.988Z,13.79
2022-09-12T01:55:08.970Z,13.83
2022-09-12T01:56:03.993Z,13.79
2022-09-12T01:57:03.873Z,13.79
2022-09-12T01:58:04.037Z,13.94
2022-09-12T01:59:03.808Z,13.89
2022-09-12T02:00:03.715Z,13.87
2022-09-12T02:01:03.689Z,13.93
2022-09-12T02:02:04.093Z,13.89
2022-09-12T02:03:03.699Z,13.83
2022-09-12T02:04:03.640Z,13.94
2022-09-12T02:05:03.497Z,13.98
2022-09-12T02:06:03.685Z,13.83
2022-09-12T02:07:03.520Z,13.78
2022-09-12T02:08:03.486Z,13.89
2022-09-12T02:09:03.318Z,13.82
2022-09-12T02:10:03.379Z,13.97
2022-09-12T02:11:03.382Z,13.98
2022-09-12T02:12:03.187Z,13.98
2022-09-12T02:13:03.404Z,13.94
2022-09-12T02:14:03.145Z,13.85
2022-09-12T02:15:03.214Z,13.83
2022-09-12T02:16:03.262Z,13.87
2022-09-12T02:17:04.054Z,13.76
2022-09-12T02:18:02.946Z,13.76
2022-09-12T02:19:03.036Z,13.73
2022-09-12T02:20:02.890Z,13.76
2022-09-12T02:21:03.948Z,13.68
2022-09-12T02:22:04.078Z,13.68
2022-09-12T02:23:02.715Z,13.73
2022-09-12T02:24:02.868Z,13.73
2022-09-12T02:25:02.634Z,13.68
2022-09-12T02:26:02.676Z,13.70
2022-09-12T02:27:02.651Z,13.73
2022-09-12T02:28:02.891Z,13.67
2022-09-12T02:29:02.450Z,13.75
2022-09-12T02:30:02.505Z,13.70
2022-09-12T02:31:02.402Z,13.62
2022-09-12T02:32:02.407Z,13.60
2022-09-12T02:33:02.299Z,13.57
2022-09-12T02:34:02.425Z,13.60
2022-09-12T02:35:02.198Z,13.61
2022-09-12T02:36:02.233Z,13.61
2022-09-12T02:37:02.107Z,13.55
2022-09-12T02:38:02.315Z,13.49
2022-09-12T02:39:02.020Z,13.60
2022-09-12T02:40:02.109Z,13.46
2022-09-12T02:41:01.972Z,13.37
2022-09-12T02:42:02.074Z,13.46
2022-09-12T02:43:01.845Z,13.46
2022-09-12T02:44:01.817Z,13.31
2022-09-12T02:45:02.093Z,13.30
2022-09-12T02:46:01.801Z,13.27
2022-09-12T02:47:01.905Z,13.37
2022-09-12T02:48:01.642Z,13.36
2022-09-12T02:49:01.584Z,13.36
2022-09-12T02:50:01.550Z,13.33
2022-09-12T02:51:01.731Z,13.42
2022-09-12T02:52:01.471Z,13.31
2022-09-12T02:53:01.584Z,13.33
2022-09-12T02:54:01.369Z,13.37
2022-09-12T02:55:01.330Z,13.45
2022-09-12T02:56:01.356Z,13.42
2022-09-12T02:57:01.409Z,13.43
2022-09-12T02:58:01.377Z,13.42
2022-09-12T02:59:01.188Z,13.54
2022-09-12T03:00:01.188Z,13.40
2022-09-12T03:01:01.092Z,13.45
2022-09-12T03:02:01.227Z,13.46
2022-09-12T03:03:01.072Z,13.49
2022-09-12T03:04:01.001Z,13.45
2022-09-12T03:05:00.886Z,13.42
2022-09-12T03:06:00.844Z,13.49
2022-09-12T03:07:01.077Z,13.45
2022-09-12T03:08:00.758Z,13.40
2022-09-12T03:09:01.038Z,13.36
2022-09-12T03:10:00.672Z,13.33
2022-09-12T03:11:00.626Z,13.33
2022-09-12T03:12:00.586Z,13.36
2022-09-12T03:13:00.658Z,13.37
2022-09-12T03:14:00.535Z,13.33
2022-09-12T03:15:00.682Z,13.36
2022-09-12T03:16:00.461Z,13.36
2022-09-12T03:17:00.401Z,13.31
2022-09-12T03:18:00.503Z,13.36
2022-09-12T03:19:00.625Z,13.31
2022-09-12T03:20:00.328Z,13.31
2022-09-12T03:21:00.288Z,13.31
2022-09-12T03:22:00.149Z,13.30
2022-09-12T03:23:00.109Z,13.28
2022-09-12T03:24:00.218Z,13.33
2022-09-12T03:25:00.125Z,13.37
2022-09-12T03:26:00.148Z,13.36
2022-09-12T03:26:59.993Z,13.30
2022-09-12T03:27:59.925Z,13.39
2022-09-12T03:28:59.966Z,13.33
2022-09-12T03:30:00.013Z,13.33
2022-09-12T03:31:00.072Z,13.31
2022-09-12T03:31:59.747Z,13.33
2022-09-12T03:32:59.677Z,13.20
2022-09-12T03:33:59.640Z,13.30
2022-09-12T03:34:59.872Z,13.21
2022-09-12T03:35:59.660Z,13.28
2022-09-12T03:36:59.636Z,13.27
2022-09-12T03:37:59.462Z,13.26
2022-09-12T03:38:59.418Z,13.27
2022-09-12T03:39:59.675Z,13.20
2022-09-12T03:40:59.374Z,13.23
2022-09-12T03:41:59.646Z,13.20
2022-09-12T03:42:59.264Z,13.21
2022-09-12T03:43:59.192Z,13.23
2022-09-12T03:44:59.157Z,13.19
2022-09-12T03:45:59.286Z,13.24
2022-09-12T03:46:59.063Z,13.21
2022-09-12T03:47:59.287Z,13.17
2022-09-12T03:48:59.129Z,13.11
2022-09-12T03:49:59.022Z,13.13
2022-09-12T03:50:59.138Z,13.09
2022-09-12T03:51:58.935Z,13.03
2022-09-12T03:52:58.906Z,13.01
2022-09-12T03:53:58.760Z,13.06
2022-09-12T03:54:58.728Z,12.98
2022-09-12T03:55:58.930Z,12.98
2022-09-12T03:56:58.628Z,12.98
2022-09-12T03:57:58.809Z,12.88
2022-09-12T03:58:58.553Z,12.94
2022-09-12T03:59:58.748Z,12.99
2022-09-12T04:00:58.497Z,12.94
2022-09-12T04:01:59.045Z,12.94
2022-09-12T04:02:58.394Z,12.91
2022-09-12T04:03:58.577Z,12.86
2022-09-12T04:04:58.351Z,12.91
2022-09-12T04:05:58.234Z,12.93
2022-09-12T04:06:58.190Z,12.88
2022-09-12T04:07:58.601Z,12.93
2022-09-12T04:08:58.137Z,12.88
2022-09-12T04:09:58.209Z,12.87
2022-09-12T04:10:58.079Z,12.87
2022-09-12T04:11:58.320Z,12.78
2022-09-12T04:12:57.929Z,12.83
2022-09-12T04:13:58.035Z,12.86
2022-09-12T04:14:58.092Z,12.83
2022-09-12T04:15:58.052Z,12.81
2022-09-12T04:16:57.852Z,12.78
2022-09-12T04:17:58.373Z,12.80
2022-09-12T04:18:57.861Z,12.75
2022-09-12T04:19:57.673Z,12.76
2022-09-12T04:20:57.679Z,12.63
2022-09-12T04:21:57.535Z,12.69
2022-09-12T04:22:57.735Z,12.65
2022-09-12T04:23:57.446Z,12.68
2022-09-12T04:24:57.504Z,12.68
2022-09-12T04:25:57.359Z,12.66
2022-09-12T04:26:57.716Z,12.61
2022-09-12T04:27:57.526Z,12.63
2022-09-12T04:28:57.234Z,12.62
2022-09-12T04:29:57.332Z,12.61
2022-09-12T04:30:57.293Z,12.62
2022-09-12T04:31:57.355Z,12.63
2022-09-12T04:32:57.146Z,12.58
2022-09-12T04:33:57.030Z,12.62
2022-09-12T04:34:57.352Z,12.62
2022-09-12T04:35:57.032Z,12.58
2022-09-12T04:36:56.995Z,12.61
2022-09-12T04:37:57.057Z,12.66
2022-09-12T04:38:56.818Z,12.69
2022-09-12T04:39:57.071Z,12.61
2022-09-12T04:40:56.811Z,12.58
2022-09-12T04:41:56.798Z,12.62
2022-09-12T04:42:56.625Z,12.65
2022-09-12T04:43:56.698Z,12.62
2022-09-12T04:44:56.598Z,12.58
2022-09-12T04:45:56.678Z,12.65
2022-09-12T04:46:58.865Z,12.61
2022-09-12T04:47:56.563Z,12.57
2022-09-12T04:48:57.163Z,12.58
2022-09-12T04:49:56.636Z,12.63
2022-09-12T04:50:56.399Z,12.61
2022-09-12T04:51:56.269Z,12.55
2022-09-12T04:52:56.394Z,12.62
2022-09-12T04:53:56.128Z,12.57
2022-09-12T04:54:56.088Z,12.48
2022-09-12T04:55:56.143Z,12.55
2022-09-12T04:56:56.203Z,12.51
2022-09-12T04:57:55.953Z,12.55
2022-09-12T04:58:56.072Z,12.47
2022-09-12T04:59:55.970Z,12.53
2022-09-12T05:00:55.917Z,12.53
2022-09-12T05:01:56.074Z,12.48
2022-09-12T05:02:55.778Z,12.47
2022-09-12T05:03:57.260Z,12.45
2022-09-12T05:04:55.981Z,12.50
2022-09-12T05:05:56.516Z,12.47
2022-09-12T05:06:55.589Z,12.47
2022-09-12T05:07:56.689Z,12.57
2022-09-12T05:08:55.478Z,12.62
2022-09-12T05:09:55.677Z,12.62
2022-09-12T05:10:55.482Z,12.57
2022-09-12T05:12:04.616Z,12.62
2022-09-12T05:12:55.552Z,12.65
2022-09-12T05:13:55.590Z,12.63
2022-09-12T05:14:55.210Z,12.68
2022-09-12T05:15:55.315Z,12.66
2022-09-12T05:16:55.216Z,12.65
2022-09-12T05:17:55.221Z,12.63
2022-09-12T05:18:55.069Z,12.68
2022-09-12T05:19:55.323Z,12.61
2022-09-12T05:20:54.947Z,12.66
2022-09-12T05:21:55.150Z,12.65
2022-09-12T05:22:54.862Z,12.65
2022-09-12T05:23:54.958Z,12.63
2022-09-12T05:24:55.042Z,12.66
2022-09-12T05:25:55.010Z,12.70
2022-09-12T05:26:54.684Z,12.68
2022-09-12T05:27:54.650Z,12.72
2022-09-12T05:28:54.607Z,12.78
2022-09-12T05:29:54.850Z,12.76
2022-09-12T05:30:54.564Z,12.68
2022-09-12T05:31:55.640Z,12.70
2022-09-12T05:32:54.421Z,12.72
2022-09-12T05:33:56.664Z,12.78
2022-09-12T05:34:54.420Z,12.81
2022-09-12T05:35:54.429Z,12.75
2022-09-12T05:36:54.549Z,12.78
2022-09-12T05:37:54.451Z,12.80
2022-09-12T05:38:54.165Z,12.81
2022-09-12T05:39:54.577Z,12.83
2022-09-12T05:40:54.077Z,12.86
2022-09-12T05:41:54.172Z,12.80
2022-09-12T05:42:54.019Z,12.86
2022-09-12T05:43:54.181Z,12.94
2022-09-12T05:44:53.988Z,12.88
2022-09-12T05:45:53.909Z,12.98
2022-09-12T05:46:54.002Z,12.94
2022-09-12T05:47:53.776Z,12.95
2022-09-12T05:48:56.106Z,13.01
2022-09-12T05:49:53.676Z,13.03
2022-09-12T05:50:53.825Z,13.03
2022-09-12T05:51:53.891Z,13.11
2022-09-12T05:52:53.647Z,13.06
2022-09-12T05:53:53.502Z,13.11
2022-09-12T05:54:53.689Z,13.12
2022-09-12T05:55:53.664Z,13.06
2022-09-12T05:56:53.386Z,13.08
2022-09-12T05:57:53.464Z,13.12
2022-09-12T05:58:53.358Z,13.05
2022-09-12T05:59:53.482Z,13.06
2022-09-12T06:03:47.073Z,13.01
2022-09-12T06:04:47.010Z,13.01
2022-09-12T06:05:50.539Z,12.95
2022-09-12T06:06:46.918Z,12.98
2022-09-12T06:07:46.874Z,13.06
2022-09-12T06:08:46.875Z,13.06
2022-09-12T06:09:46.967Z,13.02
2022-09-12T06:10:46.738Z,13.02
2022-09-12T06:11:46.701Z,13.05
2022-09-12T06:12:46.651Z,13.08
2022-09-12T06:13:46.607Z,13.13
2022-09-12T06:14:46.560Z,13.20
2022-09-12T06:15:46.630Z,13.24
2022-09-12T06:16:46.506Z,13.27
2022-09-12T06:17:50.768Z,13.31
2022-09-12T06:18:46.489Z,13.36
2022-09-12T06:19:46.348Z,13.31
2022-09-12T06:20:46.299Z,13.31
2022-09-12T06:21:46.276Z,13.46
2022-09-12T06:24:18.196Z,13.55
2022-09-12T06:25:18.163Z,13.52
2022-09-12T06:26:18.106Z,13.54
2022-09-12T06:27:18.060Z,13.50
2022-09-12T06:28:18.016Z,13.54
2022-09-12T06:29:17.970Z,13.54
2022-09-12T06:30:19.573Z,13.52
2022-09-12T06:31:17.902Z,13.64
2022-09-12T06:32:17.838Z,13.58
2022-09-12T06:33:17.799Z,13.73
2022-09-12T06:34:17.782Z,13.67
2022-09-12T06:35:17.715Z,13.62
2022-09-12T06:36:17.670Z,13.79
2022-09-12T06:37:17.621Z,13.71
2022-09-12T06:38:17.653Z,13.83
2022-09-12T06:39:17.544Z,13.93
2022-09-12T06:40:17.556Z,13.78
2022-09-12T06:41:17.452Z,13.89
2022-09-12T06:42:17.410Z,13.86
2022-09-12T06:43:17.377Z,14.07
2022-09-12T06:44:17.322Z,14.11
2022-09-12T06:45:17.279Z,14.04
2022-09-12T06:46:17.290Z,14.05
2022-09-12T06:47:17.196Z,14.11
2022-09-12T06:48:17.147Z,14.15
2022-09-12T06:49:17.128Z,14.13
2022-09-12T06:50:17.060Z,14.20
2022-09-12T06:51:17.020Z,14.30
2022-09-12T06:52:16.973Z,14.22
2022-09-12T06:53:16.934Z,14.37
2022-09-12T06:54:17.051Z,14.38
2022-09-12T06:55:19.913Z,14.38
2022-09-12T06:56:16.804Z,14.38
2022-09-12T06:57:16.759Z,14.44
2022-09-12T06:58:16.719Z,14.51
2022-09-12T06:59:16.673Z,14.49
2022-09-12T07:00:16.630Z,14.51
2022-09-12T07:01:16.638Z,14.55
2022-09-12T07:02:16.596Z,14.59
2022-09-12T07:03:16.505Z,14.61
2022-09-12T07:04:16.462Z,14.71
2022-09-12T07:05:16.416Z,14.68
2022-09-12T07:06:16.370Z,14.81
2022-09-12T07:07:16.325Z,14.73
2022-09-12T07:08:16.314Z,14.89
2022-09-12T07:09:16.250Z,14.90
2022-09-12T07:10:19.107Z,14.94
2022-09-12T07:11:16.160Z,14.93
2022-09-12T07:12:16.113Z,15.00
2022-09-12T07:13:16.071Z,15.07
2022-09-12T07:14:16.049Z,15.12
2022-09-12T07:15:15.988Z,15.19
2022-09-12T07:16:19.420Z,15.26
2022-09-12T07:17:15.899Z,15.33
2022-09-12T07:18:15.859Z,15.35
2022-09-12T07:19:15.814Z,15.47
2022-09-12T07:20:15.883Z,15.47
2022-09-12T07:21:15.734Z,15.51
2022-09-12T07:22:15.683Z,15.62
2022-09-12T07:23:15.643Z,15.69
2022-09-12T07:24:15.598Z,15.60
2022-09-12T07:25:15.554Z,15.65
2022-09-12T07:26:15.526Z,15.70
2022-09-12T07:27:15.475Z,15.72
2022-09-12T07:28:15.432Z,15.87
2022-09-12T07:29:42.992Z,15.91
2022-09-12T07:30:15.339Z,15.91
2022-09-12T07:31:15.364Z,15.96
2022-09-12T07:32:15.273Z,15.96
2022-09-12T07:33:15.219Z,16.08
2022-09-12T07:34:15.278Z,16.16
2022-09-12T07:35:15.133Z,16.28
2022-09-12T07:36:15.114Z,16.40
2022-09-12T07:37:15.050Z,16.34
2022-09-12T07:38:15.028Z,16.41
2022-09-12T07:39:14.961Z,16.46
2022-09-12T07:40:14.931Z,16.59
2022-09-12T07:41:14.877Z,16.64
2022-09-12T07:42:14.838Z,16.64
2022-09-12T07:43:14.795Z,16.64
2022-09-12T07:44:14.776Z,16.74
2022-09-12T07:45:14.706Z,16.79
2022-09-12T07:46:14.727Z,16.73
2022-09-12T07:47:14.627Z,16.77
2022-09-12T07:48:14.610Z,16.82
2022-09-12T07:49:14.566Z,16.89
2022-09-12T07:50:14.498Z,16.91
2022-09-12T07:51:14.457Z,16.98
2022-09-12T07:52:14.414Z,16.97
2022-09-12T07:53:14.384Z,17.09
2022-09-12T07:54:14.328Z,17.14
2022-09-12T07:55:14.289Z,17.22
2022-09-12T07:56:14.245Z,17.28
2022-09-12T07:57:14.201Z,17.34
2022-09-12T07:58:14.162Z,17.34
2022-09-12T07:59:21.537Z,17.39
2022-09-12T08:00:14.076Z,17.38
2022-09-12T08:01:14.074Z,17.46
2022-09-12T08:02:17.264Z,17.52
2022-09-12T08:03:13.953Z,17.49
2022-09-12T08:04:13.911Z,17.56
2022-09-12T08:05:13.884Z,17.57
2022-09-12T08:06:13.828Z,17.68
2022-09-12T08:07:13.791Z,17.63
2022-09-12T08:08:13.743Z,17.75
2022-09-12T08:09:13.703Z,17.71
2022-09-12T08:10:13.691Z,17.76
2022-09-12T08:11:13.616Z,17.88
2022-09-12T08:12:13.574Z,17.90
2022-09-12T08:13:13.537Z,17.97
2022-09-12T08:14:13.491Z,18.02
2022-09-12T08:15:13.452Z,18.02
2022-09-12T08:16:13.464Z,18.11
2022-09-12T08:17:13.364Z,18.16
2022-09-12T08:18:13.330Z,18.15
2022-09-12T08:19:13.289Z,18.28
2022-09-12T08:20:13.244Z,18.37
2022-09-12T08:21:13.202Z,18.33
2022-09-12T08:22:13.189Z,18.39
2022-09-12T08:23:13.130Z,18.53
2022-09-12T08:24:13.080Z,18.55
2022-09-12T08:25:13.035Z,18.45
2022-09-12T08:26:12.994Z,18.55
2022-09-12T08:27:12.950Z,18.68
2022-09-12T08:28:12.934Z,18.73
2022-09-12T08:29:12.872Z,18.78
2022-09-12T08:30:12.831Z,18.91
2022-09-12T08:31:12.830Z,18.94
2022-09-12T08:32:12.740Z,19.00
2022-09-12T08:33:12.705Z,19.11
2022-09-12T08:34:12.684Z,19.19
2022-09-12T08:35:12.625Z,19.29
2022-09-12T08:36:12.580Z,19.35
2022-09-12T08:37:12.546Z,19.39
2022-09-12T08:38:12.510Z,19.60
2022-09-12T08:39:12.488Z,19.82
2022-09-12T08:40:12.491Z,20.08
2022-09-12T08:41:12.379Z,20.26
2022-09-12T08:42:12.348Z,20.46
2022-09-12T08:43:12.302Z,20.58
2022-09-12T08:44:12.256Z,20.80
2022-09-12T08:45:12.245Z,21.01
2022-09-12T08:46:12.268Z,21.35
2022-09-12T08:47:12.146Z,21.60
2022-09-12T08:48:12.101Z,21.85
2022-09-12T08:49:12.069Z,22.14
2022-09-12T08:50:12.026Z,22.44
2022-09-12T08:51:12.097Z,22.65
2022-09-12T08:52:11.953Z,23.01
2022-09-12T08:53:11.918Z,23.37
2022-09-12T08:54:11.876Z,23.63
2022-09-12T08:55:11.848Z,23.95
2022-09-12T08:56:11.811Z,24.22
2022-09-12T08:57:11.783Z,24.55
2022-09-12T08:58:11.750Z,24.86
2022-09-12T08:59:11.715Z,25.11
2022-09-12T09:00:11.659Z,25.43
2022-09-12T09:01:11.717Z,25.71
2022-09-12T09:02:11.688Z,25.95
2022-09-12T09:03:11.591Z,26.33
2022-09-12T09:04:11.527Z,26.66
2022-09-12T09:05:11.516Z,27.03
2022-09-12T09:06:11.456Z,27.25
2022-09-12T09:07:11.424Z,27.64
2022-09-12T09:08:11.391Z,28.06
2022-09-12T09:09:11.383Z,28.33
2022-09-12T09:10:11.320Z,28.50
2022-09-12T09:11:11.292Z,28.93
2022-09-12T09:12:11.259Z,29.21
2022-09-12T09:13:11.228Z,29.28
2022-09-12T09:14:11.192Z,29.58
2022-09-12T09:15:11.173Z,29.95
2022-09-12T09:16:11.158Z,30.39
2022-09-12T09:17:11.097Z,30.77
2022-09-12T09:18:11.070Z,31.04
2022-09-12T09:19:11.034Z,31.54
2022-09-12T09:20:11.013Z,31.89
2022-09-12T09:21:10.967Z,32.16
2022-09-12T09:22:10.939Z,32.56
2022-09-12T09:23:10.907Z,32.88
2022-09-12T09:24:10.874Z,33.04
2022-09-12T09:25:10.950Z,33.48
2022-09-12T09:26:10.816Z,33.82
2022-09-12T09:27:29.912Z,34.03
2022-09-12T09:28:10.754Z,34.32
2022-09-12T09:29:10.726Z,34.44
2022-09-12T09:30:10.698Z,34.38
2022-09-12T09:31:10.901Z,34.44
2022-09-12T09:32:10.633Z,34.43
2022-09-12T09:33:10.608Z,34.56
2022-09-12T09:34:10.572Z,34.82
2022-09-12T09:35:10.543Z,35.08
2022-09-12T09:36:10.513Z,35.42
2022-09-12T09:37:10.497Z,35.63
2022-09-12T09:38:10.458Z,35.97
2022-09-12T09:39:10.420Z,36.03
2022-09-12T09:40:10.518Z,36.06
2022-09-12T09:41:10.364Z,36.11
2022-09-12T09:42:10.333Z,36.03
2022-09-12T09:43:10.335Z,36.00
2022-09-12T09:44:10.464Z,36.05
2022-09-12T09:45:10.254Z,36.22
2022-09-12T09:46:10.305Z,36.45
2022-09-12T09:47:10.188Z,36.48
2022-09-12T09:48:10.158Z,36.57
2022-09-12T09:49:10.152Z,36.69
2022-09-12T09:50:10.098Z,36.84
2022-09-12T09:51:10.067Z,37.07
2022-09-12T09:52:10.040Z,37.16
2022-09-12T09:53:10.014Z,37.15
2022-09-12T09:54:09.983Z,37.19
2022-09-12T09:55:10.081Z,37.34
2022-09-12T09:56:09.923Z,37.56
2022-09-12T09:57:09.896Z,37.83
2022-09-12T09:58:09.862Z,37.88
2022-09-12T09:59:09.848Z,38.14
2022-09-12T10:00:09.807Z,38.34
2022-09-12T10:01:09.862Z,38.56
2022-09-12T10:02:09.811Z,38.66
2022-09-12T10:03:13.545Z,38.77
2022-09-12T10:04:09.696Z,38.95
2022-09-12T10:05:09.672Z,39.05
2022-09-12T10:06:09.639Z,39.15
2022-09-12T10:07:09.730Z,39.29
2022-09-12T10:08:09.583Z,39.12
2022-09-12T10:09:09.558Z,39.25
2022-09-12T10:10:09.530Z,39.44
2022-09-12T10:11:09.504Z,39.59
2022-09-12T10:12:09.472Z,39.85
2022-09-12T10:13:09.476Z,39.88
2022-09-12T10:14:09.425Z,39.94
2022-09-12T10:15:09.395Z,39.54
2022-09-12T10:16:09.507Z,39.34
2022-09-12T10:17:09.339Z,39.41
2022-09-12T10:18:09.311Z,39.46
2022-09-12T10:19:09.285Z,39.70
2022-09-12T10:20:21.023Z,39.97
2022-09-12T10:21:09.231Z,40.10
2022-09-12T10:22:09.385Z,40.40
2022-09-12T10:23:09.182Z,40.43
2022-09-12T10:24:09.146Z,40.48
2022-09-12T10:25:09.121Z,40.61
2022-09-12T10:26:09.097Z,40.62
2022-09-12T10:27:09.068Z,40.62
2022-09-12T10:28:09.059Z,40.78
2022-09-12T10:29:09.015Z,40.81
2022-09-12T10:30:08.993Z,40.80
2022-09-12T10:31:09.009Z,40.90
2022-09-12T10:32:08.938Z,40.86
2022-09-12T10:33:08.933Z,40.83
2022-09-12T10:34:08.884Z,40.86
2022-09-12T10:35:08.855Z,41.11
2022-09-12T10:36:08.835Z,41.20
2022-09-12T10:37:08.806Z,40.81
2022-09-12T10:38:08.780Z,40.81
2022-09-12T10:39:08.766Z,40.96
2022-09-12T10:40:08.803Z,41.11
2022-09-12T10:41:08.700Z,41.10
2022-09-12T10:42:08.678Z,41.33
2022-09-12T10:43:08.655Z,41.41
2022-09-12T10:44:08.623Z,41.37
2022-09-12T10:45:08.619Z,41.07
2022-09-12T10:46:08.590Z,41.05
2022-09-12T10:47:08.545Z,41.18
2022-09-12T10:48:08.525Z,41.27
2022-09-12T10:49:08.493Z,41.27
2022-09-12T10:50:08.467Z,41.45
2022-09-12T10:51:08.459Z,41.22
2022-09-12T10:52:08.417Z,41.03
2022-09-12T10:53:08.394Z,41.05
2022-09-12T10:54:08.367Z,41.11
2022-09-12T10:55:08.340Z,40.98
2022-09-12T10:56:08.324Z,40.81
2022-09-12T10:57:08.297Z,40.89
2022-09-12T10:58:08.256Z,41.00
2022-09-12T10:59:08.241Z,41.10
2022-09-12T11:00:08.209Z,41.15
2022-09-12T11:01:08.246Z,41.17
2022-09-12T11:02:08.208Z,41.37
2022-09-12T11:03:08.133Z,41.34
2022-09-12T11:04:08.108Z,41.41
2022-09-12T11:05:08.078Z,41.42
2022-09-12T11:06:08.066Z,41.23
2022-09-12T11:07:08.139Z,41.11
2022-09-12T11:08:08.005Z,40.74
2022-09-12T11:09:07.978Z,40.80
2022-09-12T11:10:07.949Z,40.70
2022-09-12T11:11:07.921Z,40.67
2022-09-12T11:12:07.897Z,40.64
2022-09-12T11:13:07.918Z,40.81
2022-09-12T11:14:08.257Z,40.80
2022-09-12T11:15:07.817Z,40.89
2022-09-12T11:16:07.859Z,40.76
2022-09-12T11:17:11.634Z,40.51
2022-09-12T11:18:07.740Z,40.58
2022-09-12T11:19:07.739Z,40.44
2022-09-12T11:20:07.690Z,40.28
2022-09-12T11:21:07.678Z,39.82
2022-09-12T11:22:07.636Z,39.41
2022-09-12T11:23:07.612Z,39.19
2022-09-12T11:24:07.578Z,39.19
2022-09-12T11:25:07.573Z,39.22
2022-09-12T11:26:07.533Z,39.38
2022-09-12T11:27:07.507Z,39.52
2022-09-12T11:28:07.472Z,39.59
2022-09-12T11:29:07.453Z,39.79
2022-09-12T11:30:07.450Z,40.10
2022-09-12T11:31:07.437Z,40.23
2022-09-12T11:32:07.391Z,40.55
2022-09-12T11:33:07.377Z,40.71
2022-09-12T11:34:07.317Z,40.90
2022-09-12T11:35:07.332Z,41.22
2022-09-12T11:36:07.265Z,41.30
2022-09-12T11:37:10.589Z,41.08
2022-09-12T11:38:07.222Z,40.99
2022-09-12T11:39:07.203Z,40.96
2022-09-12T11:40:07.178Z,41.07
2022-09-12T11:41:07.133Z,41.32
2022-09-12T11:42:07.111Z,41.08
2022-09-12T11:43:07.085Z,41.04
2022-09-12T11:44:07.067Z,41.37
2022-09-12T11:45:07.065Z,41.57
2022-09-12T11:46:07.078Z,41.91
2022-09-12T11:47:06.980Z,42.07
2022-09-12T11:48:06.956Z,42.41
2022-09-12T11:49:06.934Z,42.43
2022-09-12T11:50:06.912Z,42.63
2022-09-12T11:51:06.905Z,42.81
2022-09-12T11:52:06.857Z,42.77
2022-09-12T11:53:06.835Z,42.97
2022-09-12T11:54:06.806Z,43.03
2022-09-12T11:55:06.781Z,43.00
2022-09-12T11:56:06.759Z,42.99
2022-09-12T11:57:06.767Z,42.65
2022-09-12T11:58:06.707Z,42.25
2022-09-12T11:59:06.680Z,42.51
2022-09-12T12:00:06.654Z,42.55
2022-09-12T12:01:06.629Z,42.66
2022-09-12T12:02:06.637Z,42.74
2022-09-12T12:03:06.594Z,42.81
2022-09-12T12:04:06.555Z,42.82
2022-09-12T12:05:06.533Z,42.77
2022-09-12T12:06:06.507Z,42.70
2022-09-12T12:07:06.481Z,42.68
2022-09-12T12:08:06.480Z,42.77
2022-09-12T12:09:06.457Z,42.86
2022-09-12T12:10:06.407Z,42.99
2022-09-12T12:11:06.389Z,43.16
2022-09-12T12:12:06.353Z,43.25
2022-09-12T12:13:08.684Z,43.22
2022-09-12T12:14:06.301Z,43.31
2022-09-12T12:15:06.281Z,43.31
2022-09-12T12:16:06.316Z,43.44
2022-09-12T12:17:13.942Z,43.62
2022-09-12T12:18:06.205Z,43.25
2022-09-12T12:19:10.093Z,43.36
2022-09-12T12:20:08.572Z,43.43
2022-09-12T12:21:06.129Z,43.38
2022-09-12T12:22:06.108Z,43.56
2022-09-12T12:23:06.081Z,43.58
2022-09-12T12:24:06.076Z,43.53
2022-09-12T12:25:06.031Z,43.47
2022-09-12T12:26:06.007Z,43.62
2022-09-12T12:27:05.995Z,43.66
2022-09-12T12:28:05.957Z,43.65
2022-09-12T12:29:05.945Z,43.50
2022-09-12T12:30:05.930Z,43.61
2022-09-12T12:31:05.924Z,43.69
2022-09-12T12:32:05.868Z,43.80
2022-09-12T12:33:05.829Z,43.94
2022-09-12T12:34:05.810Z,44.19
2022-09-12T12:35:05.786Z,44.41
2022-09-12T12:36:05.793Z,44.52
2022-09-12T12:37:07.433Z,44.55
2022-09-12T12:38:05.713Z,44.72
2022-09-12T12:39:05.708Z,44.82
2022-09-12T12:40:05.758Z,44.64
2022-09-12T12:41:05.638Z,44.52
2022-09-12T12:42:05.629Z,44.50
2022-09-12T12:43:05.598Z,44.32
2022-09-12T12:44:05.571Z,44.52
2022-09-12T12:45:05.559Z,44.50
2022-09-12T12:46:05.600Z,44.65
2022-09-12T12:47:05.495Z,44.50
2022-09-12T12:48:08.181Z,44.44
2022-09-12T12:49:05.446Z,44.44
2022-09-12T12:50:05.430Z,44.18
2022-09-12T12:51:05.433Z,44.19
2022-09-12T12:52:05.375Z,43.88
2022-09-12T12:53:05.347Z,43.95
2022-09-12T12:54:07.735Z,43.97
2022-09-12T12:55:05.302Z,44.07
2022-09-12T12:56:05.270Z,44.07